sensor_id;sensor_type;location;lat;lon;timestamp;P1;durP1;ratioP1;P2;durP2;ratioP2
70929;SDS011;58588;48.102;19.682;2024-02-26T00:02:38;24.75;;;12.80;;
70929;SDS011;58588;48.102;19.682;2024-02-26T00:05:40;21.83;;;11.02;;
70929;SDS011;58588;48.102;19.682;2024-02-26T00:08:42;19.73;;;9.77;;
70929;SDS011;58588;48.102;19.682;2024-02-26T00:11:44;21.27;;;10.05;;
70929;SDS011;58588;48.102;19.682;2024-02-26T00:14:47;18.83;;;9.13;;
70929;SDS011;58588;48.102;19.682;2024-02-26T00:17:49;17.42;;;8.35;;
70929;SDS011;58588;48.102;19.682;2024-02-26T00:20:51;14.82;;;7.07;;
70929;SDS011;58588;48.102;19.682;2024-02-26T00:23:54;13.85;;;7.22;;
70929;SDS011;58588;48.102;19.682;2024-02-26T00:26:55;14.05;;;6.63;;
70929;SDS011;58588;48.102;19.682;2024-02-26T00:29:59;15.10;;;7.43;;
70929;SDS011;58588;48.102;19.682;2024-02-26T00:33:01;12.55;;;6.50;;
70929;SDS011;58588;48.102;19.682;2024-02-26T00:36:03;14.10;;;7.07;;
70929;SDS011;58588;48.102;19.682;2024-02-26T00:39:05;14.57;;;7.03;;
70929;SDS011;58588;48.102;19.682;2024-02-26T00:42:07;13.68;;;6.07;;
70929;SDS011;58588;48.102;19.682;2024-02-26T00:45:11;13.73;;;5.70;;
70929;SDS011;58588;48.102;19.682;2024-02-26T00:48:13;12.40;;;6.28;;
70929;SDS011;58588;48.102;19.682;2024-02-26T00:51:15;12.27;;;6.07;;
70929;SDS011;58588;48.102;19.682;2024-02-26T00:54:16;12.00;;;5.40;;
70929;SDS011;58588;48.102;19.682;2024-02-26T00:57:18;11.13;;;5.47;;
70929;SDS011;58588;48.102;19.682;2024-02-26T01:00:22;11.03;;;5.17;;
70929;SDS011;58588;48.102;19.682;2024-02-26T01:03:23;13.73;;;6.05;;
70929;SDS011;58588;48.102;19.682;2024-02-26T01:06:25;11.10;;;4.95;;
70929;SDS011;58588;48.102;19.682;2024-02-26T01:09:27;11.05;;;5.20;;
70929;SDS011;58588;48.102;19.682;2024-02-26T01:12:29;10.75;;;4.85;;
70929;SDS011;58588;48.102;19.682;2024-02-26T01:15:32;10.00;;;4.30;;
70929;SDS011;58588;48.102;19.682;2024-02-26T01:18:34;10.32;;;4.18;;
70929;SDS011;58588;48.102;19.682;2024-02-26T01:21:36;9.05;;;3.90;;
70929;SDS011;58588;48.102;19.682;2024-02-26T01:24:38;9.40;;;4.05;;
70929;SDS011;58588;48.102;19.682;2024-02-26T01:27:40;10.35;;;3.90;;
70929;SDS011;58588;48.102;19.682;2024-02-26T01:30:45;8.50;;;4.03;;
70929;SDS011;58588;48.102;19.682;2024-02-26T01:33:47;8.55;;;2.97;;
70929;SDS011;58588;48.102;19.682;2024-02-26T01:36:49;7.97;;;2.92;;
70929;SDS011;58588;48.102;19.682;2024-02-26T01:39:50;7.28;;;2.75;;
70929;SDS011;58588;48.102;19.682;2024-02-26T01:42:52;8.57;;;2.80;;
70929;SDS011;58588;48.102;19.682;2024-02-26T01:45:56;7.67;;;2.90;;
70929;SDS011;58588;48.102;19.682;2024-02-26T01:48:58;7.53;;;2.55;;
70929;SDS011;58588;48.102;19.682;2024-02-26T01:52:01;6.10;;;2.30;;
70929;SDS011;58588;48.102;19.682;2024-02-26T01:55:06;7.35;;;2.83;;
70929;SDS011;58588;48.102;19.682;2024-02-26T01:58:09;6.90;;;2.63;;
70929;SDS011;58588;48.102;19.682;2024-02-26T02:01:13;8.90;;;3.00;;
70929;SDS011;58588;48.102;19.682;2024-02-26T02:04:17;8.43;;;2.90;;
70929;SDS011;58588;48.102;19.682;2024-02-26T02:07:19;6.55;;;2.53;;
70929;SDS011;58588;48.102;19.682;2024-02-26T02:10:22;9.15;;;3.60;;
70929;SDS011;58588;48.102;19.682;2024-02-26T02:13:25;10.43;;;4.15;;
70929;SDS011;58588;48.102;19.682;2024-02-26T02:16:29;8.77;;;3.93;;
70929;SDS011;58588;48.102;19.682;2024-02-26T02:19:30;9.90;;;4.50;;
70929;SDS011;58588;48.102;19.682;2024-02-26T02:22:34;11.20;;;4.50;;
70929;SDS011;58588;48.102;19.682;2024-02-26T02:25:35;9.85;;;3.92;;
70929;SDS011;58588;48.102;19.682;2024-02-26T02:28:37;8.18;;;3.35;;
70929;SDS011;58588;48.102;19.682;2024-02-26T02:31:41;8.23;;;3.23;;
70929;SDS011;58588;48.102;19.682;2024-02-26T02:34:43;10.88;;;3.60;;
70929;SDS011;58588;48.102;19.682;2024-02-26T02:37:47;8.02;;;3.17;;
70929;SDS011;58588;48.102;19.682;2024-02-26T02:40:50;9.32;;;4.03;;
70929;SDS011;58588;48.102;19.682;2024-02-26T02:43:52;9.68;;;3.70;;
70929;SDS011;58588;48.102;19.682;2024-02-26T02:46:54;8.93;;;3.40;;
70929;SDS011;58588;48.102;19.682;2024-02-26T02:49:56;9.57;;;3.95;;
70929;SDS011;58588;48.102;19.682;2024-02-26T02:52:59;7.53;;;3.17;;
70929;SDS011;58588;48.102;19.682;2024-02-26T02:56:02;10.27;;;4.47;;
70929;SDS011;58588;48.102;19.682;2024-02-26T02:59:04;8.98;;;3.75;;
70929;SDS011;58588;48.102;19.682;2024-02-26T03:02:06;10.37;;;4.67;;
70929;SDS011;58588;48.102;19.682;2024-02-26T03:05:08;11.38;;;4.40;;
70929;SDS011;58588;48.102;19.682;2024-02-26T03:08:13;12.27;;;5.28;;
70929;SDS011;58588;48.102;19.682;2024-02-26T03:11:15;13.32;;;5.03;;
70929;SDS011;58588;48.102;19.682;2024-02-26T03:14:17;10.18;;;4.47;;
70929;SDS011;58588;48.102;19.682;2024-02-26T03:17:19;10.43;;;4.57;;
70929;SDS011;58588;48.102;19.682;2024-02-26T03:20:21;11.32;;;4.43;;
70929;SDS011;58588;48.102;19.682;2024-02-26T03:23:25;11.35;;;5.18;;
70929;SDS011;58588;48.102;19.682;2024-02-26T03:26:26;25.08;;;13.60;;
70929;SDS011;58588;48.102;19.682;2024-02-26T03:29:29;16.25;;;8.57;;
70929;SDS011;58588;48.102;19.682;2024-02-26T03:32:31;12.37;;;5.90;;
70929;SDS011;58588;48.102;19.682;2024-02-26T03:35:32;12.30;;;5.90;;
70929;SDS011;58588;48.102;19.682;2024-02-26T03:38:36;12.75;;;5.85;;
70929;SDS011;58588;48.102;19.682;2024-02-26T03:41:39;11.70;;;5.70;;
70929;SDS011;58588;48.102;19.682;2024-02-26T03:44:40;20.50;;;9.60;;
70929;SDS011;58588;48.102;19.682;2024-02-26T03:47:42;23.27;;;11.20;;
70929;SDS011;58588;48.102;19.682;2024-02-26T03:50:44;16.77;;;8.23;;
70929;SDS011;58588;48.102;19.682;2024-02-26T03:53:47;14.23;;;7.05;;
70929;SDS011;58588;48.102;19.682;2024-02-26T03:56:49;14.05;;;7.35;;
70929;SDS011;58588;48.102;19.682;2024-02-26T03:59:51;12.88;;;6.30;;
70929;SDS011;58588;48.102;19.682;2024-02-26T04:02:53;11.80;;;5.57;;
70929;SDS011;58588;48.102;19.682;2024-02-26T04:05:55;15.18;;;7.03;;
70929;SDS011;58588;48.102;19.682;2024-02-26T04:08:59;17.08;;;8.07;;
70929;SDS011;58588;48.102;19.682;2024-02-26T04:12:04;16.95;;;7.50;;
70929;SDS011;58588;48.102;19.682;2024-02-26T04:15:06;17.52;;;7.82;;
70929;SDS011;58588;48.102;19.682;2024-02-26T04:18:09;16.77;;;7.53;;
70929;SDS011;58588;48.102;19.682;2024-02-26T04:21:11;18.60;;;8.38;;
70929;SDS011;58588;48.102;19.682;2024-02-26T04:24:14;13.32;;;6.75;;
70929;SDS011;58588;48.102;19.682;2024-02-26T04:27:16;12.30;;;5.35;;
70929;SDS011;58588;48.102;19.682;2024-02-26T04:30:18;12.10;;;5.13;;
70929;SDS011;58588;48.102;19.682;2024-02-26T04:33:20;13.93;;;5.63;;
70929;SDS011;58588;48.102;19.682;2024-02-26T04:36:22;14.70;;;7.00;;
70929;SDS011;58588;48.102;19.682;2024-02-26T04:39:25;15.77;;;7.53;;
70929;SDS011;58588;48.102;19.682;2024-02-26T04:42:27;12.73;;;5.97;;
70929;SDS011;58588;48.102;19.682;2024-02-26T04:45:29;12.25;;;5.72;;
70929;SDS011;58588;48.102;19.682;2024-02-26T04:48:30;12.50;;;5.33;;
70929;SDS011;58588;48.102;19.682;2024-02-26T04:51:32;10.50;;;5.03;;
70929;SDS011;58588;48.102;19.682;2024-02-26T04:54:36;12.75;;;5.43;;
70929;SDS011;58588;48.102;19.682;2024-02-26T04:57:37;13.15;;;5.35;;
70929;SDS011;58588;48.102;19.682;2024-02-26T05:00:39;10.70;;;4.32;;
70929;SDS011;58588;48.102;19.682;2024-02-26T05:03:41;9.43;;;4.07;;
70929;SDS011;58588;48.102;19.682;2024-02-26T05:06:43;9.35;;;3.55;;
70929;SDS011;58588;48.102;19.682;2024-02-26T05:09:46;9.93;;;4.57;;
70929;SDS011;58588;48.102;19.682;2024-02-26T05:12:49;10.82;;;4.65;;
70929;SDS011;58588;48.102;19.682;2024-02-26T05:15:51;10.30;;;4.57;;
70929;SDS011;58588;48.102;19.682;2024-02-26T05:18:53;11.10;;;4.63;;
70929;SDS011;58588;48.102;19.682;2024-02-26T05:21:55;12.57;;;5.68;;
70929;SDS011;58588;48.102;19.682;2024-02-26T05:24:59;12.48;;;6.03;;
70929;SDS011;58588;48.102;19.682;2024-02-26T05:28:01;16.83;;;6.80;;
70929;SDS011;58588;48.102;19.682;2024-02-26T05:31:03;16.55;;;6.80;;
70929;SDS011;58588;48.102;19.682;2024-02-26T05:34:05;18.93;;;8.40;;
70929;SDS011;58588;48.102;19.682;2024-02-26T05:37:06;29.10;;;11.50;;
70929;SDS011;58588;48.102;19.682;2024-02-26T05:40:10;27.95;;;11.32;;
70929;SDS011;58588;48.102;19.682;2024-02-26T05:43:13;17.92;;;8.82;;
70929;SDS011;58588;48.102;19.682;2024-02-26T05:46:16;21.10;;;8.95;;
70929;SDS011;58588;48.102;19.682;2024-02-26T05:49:18;22.00;;;8.63;;
70929;SDS011;58588;48.102;19.682;2024-02-26T05:52:20;27.52;;;11.48;;
70929;SDS011;58588;48.102;19.682;2024-02-26T05:55:23;35.80;;;13.63;;
70929;SDS011;58588;48.102;19.682;2024-02-26T05:58:25;20.02;;;8.57;;
70929;SDS011;58588;48.102;19.682;2024-02-26T06:01:26;22.27;;;10.10;;
70929;SDS011;58588;48.102;19.682;2024-02-26T06:04:28;50.40;;;23.30;;
70929;SDS011;58588;48.102;19.682;2024-02-26T06:07:30;38.95;;;18.13;;
70929;SDS011;58588;48.102;19.682;2024-02-26T06:10:33;28.20;;;11.45;;
70929;SDS011;58588;48.102;19.682;2024-02-26T06:13:35;17.00;;;7.97;;
70929;SDS011;58588;48.102;19.682;2024-02-26T06:16:37;16.60;;;8.10;;
70929;SDS011;58588;48.102;19.682;2024-02-26T06:19:39;16.47;;;7.13;;
70929;SDS011;58588;48.102;19.682;2024-02-26T06:22:41;13.68;;;6.00;;
70929;SDS011;58588;48.102;19.682;2024-02-26T06:25:44;13.95;;;5.80;;
70929;SDS011;58588;48.102;19.682;2024-02-26T06:28:48;12.65;;;5.47;;
70929;SDS011;58588;48.102;19.682;2024-02-26T06:31:49;19.77;;;9.68;;
70929;SDS011;58588;48.102;19.682;2024-02-26T06:34:52;24.47;;;10.70;;
70929;SDS011;58588;48.102;19.682;2024-02-26T06:37:53;22.02;;;10.25;;
70929;SDS011;58588;48.102;19.682;2024-02-26T06:40:57;23.98;;;11.57;;
70929;SDS011;58588;48.102;19.682;2024-02-26T06:43:59;18.23;;;8.50;;
70929;SDS011;58588;48.102;19.682;2024-02-26T06:47:01;16.75;;;7.40;;
70929;SDS011;58588;48.102;19.682;2024-02-26T06:50:03;33.57;;;14.37;;
70929;SDS011;58588;48.102;19.682;2024-02-26T06:53:05;23.23;;;9.80;;
70929;SDS011;58588;48.102;19.682;2024-02-26T06:56:09;31.02;;;10.55;;
70929;SDS011;58588;48.102;19.682;2024-02-26T06:59:11;27.73;;;10.98;;
70929;SDS011;58588;48.102;19.682;2024-02-26T07:02:13;23.67;;;9.05;;
70929;SDS011;58588;48.102;19.682;2024-02-26T07:05:16;19.90;;;8.87;;
70929;SDS011;58588;48.102;19.682;2024-02-26T07:08:18;18.92;;;8.48;;
70929;SDS011;58588;48.102;19.682;2024-02-26T07:11:21;20.83;;;9.75;;
70929;SDS011;58588;48.102;19.682;2024-02-26T07:14:23;23.42;;;10.68;;
70929;SDS011;58588;48.102;19.682;2024-02-26T07:17:25;19.88;;;9.73;;
70929;SDS011;58588;48.102;19.682;2024-02-26T07:20:26;16.83;;;8.70;;
70929;SDS011;58588;48.102;19.682;2024-02-26T07:23:28;17.90;;;8.27;;
70929;SDS011;58588;48.102;19.682;2024-02-26T07:26:32;20.08;;;10.05;;
70929;SDS011;58588;48.102;19.682;2024-02-26T07:29:33;19.13;;;10.38;;
70929;SDS011;58588;48.102;19.682;2024-02-26T07:32:35;21.67;;;10.43;;
70929;SDS011;58588;48.102;19.682;2024-02-26T07:35:37;21.50;;;10.97;;
70929;SDS011;58588;48.102;19.682;2024-02-26T07:38:39;19.73;;;10.45;;
70929;SDS011;58588;48.102;19.682;2024-02-26T07:41:42;23.20;;;12.10;;
70929;SDS011;58588;48.102;19.682;2024-02-26T07:44:46;23.42;;;12.23;;
70929;SDS011;58588;48.102;19.682;2024-02-26T07:47:48;22.45;;;11.63;;
70929;SDS011;58588;48.102;19.682;2024-02-26T07:50:51;25.23;;;11.37;;
70929;SDS011;58588;48.102;19.682;2024-02-26T07:53:54;23.52;;;12.57;;
70929;SDS011;58588;48.102;19.682;2024-02-26T07:56:57;26.00;;;14.48;;
70929;SDS011;58588;48.102;19.682;2024-02-26T07:59:59;25.83;;;14.65;;
70929;SDS011;58588;48.102;19.682;2024-02-26T08:03:01;24.60;;;14.38;;
70929;SDS011;58588;48.102;19.682;2024-02-26T08:06:03;25.47;;;14.07;;
70929;SDS011;58588;48.102;19.682;2024-02-26T08:09:05;26.33;;;14.68;;
70929;SDS011;58588;48.102;19.682;2024-02-26T08:12:08;26.15;;;14.20;;
70929;SDS011;58588;48.102;19.682;2024-02-26T08:15:10;27.40;;;15.30;;
70929;SDS011;58588;48.102;19.682;2024-02-26T08:18:12;26.20;;;14.82;;
70929;SDS011;58588;48.102;19.682;2024-02-26T08:21:14;26.10;;;14.43;;
70929;SDS011;58588;48.102;19.682;2024-02-26T08:24:16;28.33;;;15.90;;
70929;SDS011;58588;48.102;19.682;2024-02-26T08:27:20;28.75;;;15.98;;
70929;SDS011;58588;48.102;19.682;2024-02-26T08:30:21;27.17;;;15.45;;
70929;SDS011;58588;48.102;19.682;2024-02-26T08:33:23;28.67;;;16.38;;
70929;SDS011;58588;48.102;19.682;2024-02-26T08:36:25;30.97;;;16.27;;
70929;SDS011;58588;48.102;19.682;2024-02-26T08:39:27;34.70;;;19.63;;
70929;SDS011;58588;48.102;19.682;2024-02-26T08:42:30;35.47;;;19.40;;
70929;SDS011;58588;48.102;19.682;2024-02-26T08:45:32;31.77;;;19.70;;
70929;SDS011;58588;48.102;19.682;2024-02-26T08:48:34;29.42;;;17.23;;
70929;SDS011;58588;48.102;19.682;2024-02-26T08:51:40;31.40;;;18.53;;
70929;SDS011;58588;48.102;19.682;2024-02-26T08:54:43;30.67;;;17.90;;
70929;SDS011;58588;48.102;19.682;2024-02-26T08:57:46;28.00;;;17.10;;
70929;SDS011;58588;48.102;19.682;2024-02-26T09:00:48;28.05;;;16.58;;
70929;SDS011;58588;48.102;19.682;2024-02-26T09:03:50;30.65;;;18.35;;
70929;SDS011;58588;48.102;19.682;2024-02-26T09:06:52;30.43;;;16.83;;
70929;SDS011;58588;48.102;19.682;2024-02-26T09:09:55;28.52;;;17.15;;
70929;SDS011;58588;48.102;19.682;2024-02-26T09:12:58;28.63;;;17.35;;
70929;SDS011;58588;48.102;19.682;2024-02-26T09:16:00;30.15;;;17.05;;
70929;SDS011;58588;48.102;19.682;2024-02-26T09:19:02;29.35;;;16.90;;
70929;SDS011;58588;48.102;19.682;2024-02-26T09:22:04;26.73;;;15.93;;
70929;SDS011;58588;48.102;19.682;2024-02-26T09:25:07;28.05;;;16.20;;
70929;SDS011;58588;48.102;19.682;2024-02-26T09:28:11;27.95;;;16.42;;
70929;SDS011;58588;48.102;19.682;2024-02-26T09:31:12;28.50;;;16.80;;
70929;SDS011;58588;48.102;19.682;2024-02-26T09:34:16;28.15;;;16.42;;
70929;SDS011;58588;48.102;19.682;2024-02-26T09:37:18;31.43;;;17.40;;
70929;SDS011;58588;48.102;19.682;2024-02-26T09:40:20;28.45;;;17.38;;
70929;SDS011;58588;48.102;19.682;2024-02-26T09:43:23;30.45;;;17.67;;
70929;SDS011;58588;48.102;19.682;2024-02-26T09:46:28;31.13;;;18.52;;
70929;SDS011;58588;48.102;19.682;2024-02-26T09:49:31;35.88;;;20.83;;
70929;SDS011;58588;48.102;19.682;2024-02-26T09:52:33;30.90;;;18.37;;
70929;SDS011;58588;48.102;19.682;2024-02-26T09:55:39;29.23;;;18.38;;
70929;SDS011;58588;48.102;19.682;2024-02-26T09:58:42;30.65;;;18.55;;
70929;SDS011;58588;48.102;19.682;2024-02-26T10:01:45;32.72;;;18.27;;
70929;SDS011;58588;48.102;19.682;2024-02-26T10:04:49;31.02;;;18.33;;
70929;SDS011;58588;48.102;19.682;2024-02-26T10:07:53;29.90;;;17.37;;
70929;SDS011;58588;48.102;19.682;2024-02-26T10:10:57;28.13;;;15.73;;
70929;SDS011;58588;48.102;19.682;2024-02-26T10:14:01;30.65;;;18.27;;
70929;SDS011;58588;48.102;19.682;2024-02-26T10:17:03;28.85;;;17.58;;
70929;SDS011;58588;48.102;19.682;2024-02-26T10:20:12;26.27;;;15.90;;
70929;SDS011;58588;48.102;19.682;2024-02-26T10:23:16;27.13;;;16.53;;
70929;SDS011;58588;48.102;19.682;2024-02-26T10:26:18;29.00;;;17.67;;
70929;SDS011;58588;48.102;19.682;2024-02-26T10:29:23;28.15;;;16.95;;
70929;SDS011;58588;48.102;19.682;2024-02-26T10:32:26;27.05;;;15.23;;
70929;SDS011;58588;48.102;19.682;2024-02-26T10:35:28;27.85;;;16.27;;
70929;SDS011;58588;48.102;19.682;2024-02-26T10:38:32;28.57;;;16.93;;
70929;SDS011;58588;48.102;19.682;2024-02-26T10:41:34;28.30;;;16.90;;
70929;SDS011;58588;48.102;19.682;2024-02-26T10:44:37;25.98;;;15.93;;
70929;SDS011;58588;48.102;19.682;2024-02-26T10:47:42;30.13;;;16.83;;
70929;SDS011;58588;48.102;19.682;2024-02-26T10:50:44;27.58;;;15.85;;
70929;SDS011;58588;48.102;19.682;2024-02-26T10:53:49;27.93;;;16.33;;
70929;SDS011;58588;48.102;19.682;2024-02-26T10:56:57;29.88;;;16.42;;
70929;SDS011;58588;48.102;19.682;2024-02-26T11:00:02;27.88;;;16.80;;
70929;SDS011;58588;48.102;19.682;2024-02-26T11:03:05;28.65;;;17.10;;
70929;SDS011;58588;48.102;19.682;2024-02-26T11:06:10;25.80;;;15.55;;
70929;SDS011;58588;48.102;19.682;2024-02-26T11:09:14;32.53;;;17.47;;
70929;SDS011;58588;48.102;19.682;2024-02-26T11:12:17;27.70;;;16.58;;
70929;SDS011;58588;48.102;19.682;2024-02-26T11:15:22;27.02;;;16.05;;
70929;SDS011;58588;48.102;19.682;2024-02-26T11:18:25;26.55;;;15.13;;
70929;SDS011;58588;48.102;19.682;2024-02-26T11:21:28;26.50;;;14.77;;
70929;SDS011;58588;48.102;19.682;2024-02-26T11:24:38;24.53;;;14.90;;
70929;SDS011;58588;48.102;19.682;2024-02-26T11:27:43;28.85;;;15.70;;
70929;SDS011;58588;48.102;19.682;2024-02-26T11:30:50;25.73;;;15.40;;
70929;SDS011;58588;48.102;19.682;2024-02-26T11:33:54;28.67;;;15.93;;
70929;SDS011;58588;48.102;19.682;2024-02-26T11:36:57;25.42;;;14.60;;
70929;SDS011;58588;48.102;19.682;2024-02-26T11:40:00;27.60;;;16.00;;
70929;SDS011;58588;48.102;19.682;2024-02-26T11:43:03;24.30;;;15.35;;
70929;SDS011;58588;48.102;19.682;2024-02-26T11:46:07;27.02;;;16.10;;
70929;SDS011;58588;48.102;19.682;2024-02-26T11:49:29;25.48;;;15.93;;
70929;SDS011;58588;48.102;19.682;2024-02-26T11:52:32;27.48;;;16.55;;
70929;SDS011;58588;48.102;19.682;2024-02-26T11:55:34;25.40;;;15.60;;
70929;SDS011;58588;48.102;19.682;2024-02-26T11:58:38;23.48;;;14.80;;
70929;SDS011;58588;48.102;19.682;2024-02-26T12:01:46;26.85;;;16.48;;
70929;SDS011;58588;48.102;19.682;2024-02-26T12:04:49;27.25;;;16.02;;
70929;SDS011;58588;48.102;19.682;2024-02-26T12:07:52;26.17;;;16.17;;
70929;SDS011;58588;48.102;19.682;2024-02-26T12:10:57;25.37;;;14.43;;
70929;SDS011;58588;48.102;19.682;2024-02-26T12:14:01;24.27;;;14.90;;
70929;SDS011;58588;48.102;19.682;2024-02-26T12:17:04;24.30;;;14.82;;
70929;SDS011;58588;48.102;19.682;2024-02-26T12:20:08;22.55;;;14.45;;
70929;SDS011;58588;48.102;19.682;2024-02-26T12:23:14;23.30;;;14.00;;
70929;SDS011;58588;48.102;19.682;2024-02-26T12:26:17;21.83;;;14.17;;
70929;SDS011;58588;48.102;19.682;2024-02-26T12:29:19;23.27;;;14.45;;
70929;SDS011;58588;48.102;19.682;2024-02-26T12:32:23;24.92;;;15.05;;
70929;SDS011;58588;48.102;19.682;2024-02-26T12:35:25;24.23;;;13.32;;
70929;SDS011;58588;48.102;19.682;2024-02-26T12:38:27;22.73;;;13.15;;
70929;SDS011;58588;48.102;19.682;2024-02-26T12:41:30;20.43;;;12.90;;
70929;SDS011;58588;48.102;19.682;2024-02-26T12:44:32;22.90;;;13.77;;
70929;SDS011;58588;48.102;19.682;2024-02-26T12:47:36;25.23;;;14.77;;
70929;SDS011;58588;48.102;19.682;2024-02-26T12:50:39;21.58;;;13.43;;
70929;SDS011;58588;48.102;19.682;2024-02-26T12:53:41;30.00;;;16.05;;
70929;SDS011;58588;48.102;19.682;2024-02-26T12:56:43;24.70;;;15.13;;
70929;SDS011;58588;48.102;19.682;2024-02-26T12:59:45;23.23;;;13.18;;
70929;SDS011;58588;48.102;19.682;2024-02-26T13:02:49;21.45;;;13.10;;
70929;SDS011;58588;48.102;19.682;2024-02-26T13:05:52;23.73;;;12.23;;
70929;SDS011;58588;48.102;19.682;2024-02-26T13:08:56;20.55;;;12.13;;
70929;SDS011;58588;48.102;19.682;2024-02-26T13:11:59;20.10;;;12.37;;
70929;SDS011;58588;48.102;19.682;2024-02-26T13:15:01;20.60;;;11.60;;
70929;SDS011;58588;48.102;19.682;2024-02-26T13:18:10;19.30;;;11.85;;
70929;SDS011;58588;48.102;19.682;2024-02-26T13:21:13;22.17;;;12.27;;
70929;SDS011;58588;48.102;19.682;2024-02-26T13:24:16;19.42;;;11.93;;
70929;SDS011;58588;48.102;19.682;2024-02-26T13:27:20;19.37;;;11.50;;
70929;SDS011;58588;48.102;19.682;2024-02-26T13:30:23;24.95;;;12.30;;
70929;SDS011;58588;48.102;19.682;2024-02-26T13:33:26;19.75;;;12.00;;
70929;SDS011;58588;48.102;19.682;2024-02-26T13:36:29;20.80;;;12.30;;
70929;SDS011;58588;48.102;19.682;2024-02-26T13:39:31;19.88;;;11.68;;
70929;SDS011;58588;48.102;19.682;2024-02-26T13:42:32;20.03;;;11.03;;
70929;SDS011;58588;48.102;19.682;2024-02-26T13:45:35;20.50;;;11.55;;
70929;SDS011;58588;48.102;19.682;2024-02-26T13:48:39;19.10;;;11.45;;
70929;SDS011;58588;48.102;19.682;2024-02-26T13:51:41;19.70;;;11.48;;
70929;SDS011;58588;48.102;19.682;2024-02-26T13:54:43;18.83;;;10.95;;
70929;SDS011;58588;48.102;19.682;2024-02-26T13:57:45;25.40;;;12.60;;
70929;SDS011;58588;48.102;19.682;2024-02-26T14:00:49;21.55;;;12.80;;
70929;SDS011;58588;48.102;19.682;2024-02-26T14:03:52;19.30;;;11.60;;
70929;SDS011;58588;48.102;19.682;2024-02-26T14:06:55;21.15;;;12.02;;
70929;SDS011;58588;48.102;19.682;2024-02-26T14:09:57;19.08;;;11.52;;
70929;SDS011;58588;48.102;19.682;2024-02-26T14:12:59;18.67;;;11.63;;
70929;SDS011;58588;48.102;19.682;2024-02-26T14:16:01;21.33;;;11.82;;
70929;SDS011;58588;48.102;19.682;2024-02-26T14:19:04;24.95;;;13.15;;
70929;SDS011;58588;48.102;19.682;2024-02-26T14:22:06;26.38;;;13.23;;
70929;SDS011;58588;48.102;19.682;2024-02-26T14:25:08;21.88;;;12.88;;
70929;SDS011;58588;48.102;19.682;2024-02-26T14:28:10;22.60;;;13.33;;
70929;SDS011;58588;48.102;19.682;2024-02-26T14:31:12;28.60;;;16.40;;
70929;SDS011;58588;48.102;19.682;2024-02-26T14:34:15;31.48;;;18.55;;
70929;SDS011;58588;48.102;19.682;2024-02-26T14:37:19;28.08;;;15.52;;
70929;SDS011;58588;48.102;19.682;2024-02-26T14:40:20;29.25;;;15.70;;
70929;SDS011;58588;48.102;19.682;2024-02-26T14:43:22;27.80;;;15.97;;
70929;SDS011;58588;48.102;19.682;2024-02-26T14:46:24;24.13;;;14.60;;
70929;SDS011;58588;48.102;19.682;2024-02-26T14:49:28;27.17;;;15.88;;
70929;SDS011;58588;48.102;19.682;2024-02-26T14:52:31;30.05;;;16.15;;
70929;SDS011;58588;48.102;19.682;2024-02-26T14:55:33;26.30;;;15.35;;
70929;SDS011;58588;48.102;19.682;2024-02-26T14:58:35;29.47;;;16.67;;
70929;SDS011;58588;48.102;19.682;2024-02-26T15:01:38;27.45;;;14.95;;
70929;SDS011;58588;48.102;19.682;2024-02-26T15:04:42;28.10;;;15.98;;
70929;SDS011;58588;48.102;19.682;2024-02-26T15:07:45;24.13;;;14.73;;
70929;SDS011;58588;48.102;19.682;2024-02-26T15:10:47;25.02;;;14.75;;
70929;SDS011;58588;48.102;19.682;2024-02-26T15:13:51;22.90;;;13.97;;
70929;SDS011;58588;48.102;19.682;2024-02-26T15:16:53;21.85;;;13.82;;
70929;SDS011;58588;48.102;19.682;2024-02-26T15:19:57;26.33;;;14.45;;
70929;SDS011;58588;48.102;19.682;2024-02-26T15:22:59;25.20;;;15.40;;
70929;SDS011;58588;48.102;19.682;2024-02-26T15:26:03;25.52;;;14.48;;
70929;SDS011;58588;48.102;19.682;2024-02-26T15:29:05;25.10;;;14.30;;
70929;SDS011;58588;48.102;19.682;2024-02-26T15:32:08;27.63;;;16.45;;
70929;SDS011;58588;48.102;19.682;2024-02-26T15:35:13;24.63;;;15.23;;
70929;SDS011;58588;48.102;19.682;2024-02-26T15:38:15;24.83;;;15.32;;
70929;SDS011;58588;48.102;19.682;2024-02-26T15:41:17;27.35;;;16.10;;
70929;SDS011;58588;48.102;19.682;2024-02-26T15:44:19;27.80;;;17.13;;
70929;SDS011;58588;48.102;19.682;2024-02-26T15:47:20;25.25;;;15.30;;
70929;SDS011;58588;48.102;19.682;2024-02-26T15:50:26;27.05;;;16.48;;
70929;SDS011;58588;48.102;19.682;2024-02-26T15:53:28;26.17;;;15.75;;
70929;SDS011;58588;48.102;19.682;2024-02-26T15:56:35;33.00;;;18.92;;
70929;SDS011;58588;48.102;19.682;2024-02-26T15:59:45;31.87;;;17.60;;
70929;SDS011;58588;48.102;19.682;2024-02-26T16:02:48;31.70;;;17.92;;
70929;SDS011;58588;48.102;19.682;2024-02-26T16:05:52;30.38;;;17.30;;
70929;SDS011;58588;48.102;19.682;2024-02-26T16:08:53;30.20;;;16.65;;
70929;SDS011;58588;48.102;19.682;2024-02-26T16:11:56;29.52;;;16.88;;
70929;SDS011;58588;48.102;19.682;2024-02-26T16:14:59;29.33;;;15.77;;
70929;SDS011;58588;48.102;19.682;2024-02-26T16:18:01;30.58;;;16.50;;
70929;SDS011;58588;48.102;19.682;2024-02-26T16:21:05;27.73;;;16.15;;
70929;SDS011;58588;48.102;19.682;2024-02-26T16:24:07;29.95;;;16.27;;
70929;SDS011;58588;48.102;19.682;2024-02-26T16:27:09;33.08;;;21.15;;
70929;SDS011;58588;48.102;19.682;2024-02-26T16:30:11;29.83;;;19.70;;
70929;SDS011;58588;48.102;19.682;2024-02-26T16:33:14;31.75;;;17.85;;
70929;SDS011;58588;48.102;19.682;2024-02-26T16:36:17;32.85;;;17.20;;
70929;SDS011;58588;48.102;19.682;2024-02-26T16:39:19;36.67;;;20.90;;
70929;SDS011;58588;48.102;19.682;2024-02-26T16:42:22;40.33;;;22.92;;
70929;SDS011;58588;48.102;19.682;2024-02-26T16:45:24;33.97;;;19.97;;
70929;SDS011;58588;48.102;19.682;2024-02-26T16:48:28;32.17;;;18.30;;
70929;SDS011;58588;48.102;19.682;2024-02-26T16:51:32;30.85;;;16.00;;
70929;SDS011;58588;48.102;19.682;2024-02-26T16:54:35;30.80;;;16.58;;
70929;SDS011;58588;48.102;19.682;2024-02-26T16:57:37;30.88;;;16.60;;
70929;SDS011;58588;48.102;19.682;2024-02-26T17:00:40;32.50;;;17.57;;
70929;SDS011;58588;48.102;19.682;2024-02-26T17:03:42;31.70;;;18.00;;
70929;SDS011;58588;48.102;19.682;2024-02-26T17:06:45;29.75;;;17.00;;
70929;SDS011;58588;48.102;19.682;2024-02-26T17:09:47;29.95;;;17.20;;
70929;SDS011;58588;48.102;19.682;2024-02-26T17:12:49;32.45;;;17.70;;
70929;SDS011;58588;48.102;19.682;2024-02-26T17:15:51;32.80;;;17.23;;
70929;SDS011;58588;48.102;19.682;2024-02-26T17:18:53;33.37;;;17.40;;
70929;SDS011;58588;48.102;19.682;2024-02-26T17:21:56;28.83;;;16.73;;
70929;SDS011;58588;48.102;19.682;2024-02-26T17:24:58;34.15;;;17.98;;
70929;SDS011;58588;48.102;19.682;2024-02-26T17:28:00;32.03;;;18.40;;
70929;SDS011;58588;48.102;19.682;2024-02-26T17:31:02;29.63;;;16.20;;
70929;SDS011;58588;48.102;19.682;2024-02-26T17:34:04;26.70;;;14.53;;
70929;SDS011;58588;48.102;19.682;2024-02-26T17:37:10;27.42;;;14.80;;
70929;SDS011;58588;48.102;19.682;2024-02-26T17:40:12;26.00;;;14.85;;